Terminal Aerodrome Forecast
Issued by NWS Wilmington, OH

Current Version | Previous Version | Text Only | Print | Product List | Glossary Off
Versions: 1 2 3 4 5 6 7 8 9 10 11 12 13 14 15 16 17 18 19 20 21 22 23

939
FTUS41 KILN 010520
TAFCMH
TAF
KCMH 010520Z 0106/0206 17010KT 4SM -SHRA OVC008
     FM010800 17006KT 4SM BR OVC006
     FM011500 23006KT P6SM BKN015
     FM011800 26006KT P6SM FEW025 BKN035
     FM012200 28006KT P6SM VCSH SCT025 BKN040
     FM020200 21005KT P6SM SCT050 BKN080=

USA.gov is the U.S. government's official web portal to all federal, state and local government web resources and services.